»·PEaware :: N6977U KLAX-KSAN

N6977U :: KLAX-KSAN

FLIGHT INFORMATION

Flight Status: Arrived
Operator: Privately registered:
United States
More flights under this callsign
Pilot: Jeremy H. (10741)
Aircraft: CESSNA 310
(C310)
More flights by this aircraft type
Origin: KLAX Los Angeles Intl
United States
Destination: KSAN San Diego Intl-Lindbergh
United States
More flights between these airports :: More routes between these airports
Route:
File this flight plan on PilotEdge
Remarks:
Altitude:
(Current/Filed)
5,500ft
Speed:
(Current/Filed)
0kts
Departed: 21-Nov-23 05:39 PM
Arrived: 21-Nov-23 06:21 PM
Distance/Time
Traveled:
95nm/0:42
Distance/Time
To Go:
Arrived

Flight Plot

Page will automatically refresh every two minutes.


Map Options




Map Legend


Flown Route
Filed Route
Departure Airport
Arrival Airport
Navaid (VOR, NDB)
Fix

Horizontal Profiles

Position Reports

Time Latitude Longitude Heading Altitude Ground
Speed
21-Nov-23 17:25 33.932576 -118.398167 176 120ft 0kts
21-Nov-23 17:26 33.932576 -118.398167 176 120ft 0kts
21-Nov-23 17:27 33.932576 -118.398167 176 120ft 0kts
21-Nov-23 17:28 33.932576 -118.398167 176 120ft 0kts
21-Nov-23 17:29 33.932576 -118.398167 176 120ft 0kts
21-Nov-23 17:30 33.932576 -118.398167 176 120ft 0kts
21-Nov-23 17:31 33.932546 -118.397965 49 117ft 7kts
21-Nov-23 17:32 33.934427 -118.398121 28 120ft 12kts
21-Nov-23 17:33 33.935158 -118.392339 84 120ft 19kts
21-Nov-23 17:34 33.935772 -118.386343 82 120ft 18kts
21-Nov-23 17:35 33.936453 -118.382806 11 116ft 0kts
21-Nov-23 17:36 33.936453 -118.382806 11 116ft 0kts
21-Nov-23 17:37 33.936920 -118.382929 342 120ft 10kts
21-Nov-23 17:38 33.935928 -118.393875 263 458ft 90kts
21-Nov-23 17:39 33.930232 -118.429511 261 2130ft 103kts
21-Nov-23 17:40 33.905290 -118.446930 194 3135ft 128kts
21-Nov-23 17:41 33.874741 -118.422643 139 3993ft 140kts
21-Nov-23 17:42 33.844666 -118.391232 137 4797ft 143kts
21-Nov-23 17:43 33.814349 -118.357843 137 5594ft 153kts
21-Nov-23 17:44 33.779164 -118.319276 137 5769ft 188kts
21-Nov-23 17:45 33.739333 -118.275610 137 5766ft 197kts
21-Nov-23 17:46 33.698606 -118.230968 137 5761ft 198kts
21-Nov-23 17:47 33.658862 -118.187436 137 5742ft 186kts
21-Nov-23 17:48 33.621347 -118.146380 137 5717ft 180kts
21-Nov-23 17:49 33.584456 -118.106075 136 5720ft 179kts
21-Nov-23 17:50 33.553599 -118.059692 124 5733ft 177kts
21-Nov-23 17:51 33.528234 -118.009051 118 5732ft 176kts
21-Nov-23 17:52 33.504475 -117.958423 118 5734ft 173kts
21-Nov-23 17:53 33.480995 -117.908228 118 5727ft 172kts
21-Nov-23 17:54 33.457645 -117.858277 118 5732ft 171kts
21-Nov-23 17:55 33.434421 -117.808615 118 5731ft 170kts
21-Nov-23 17:56 33.410653 -117.759532 127 5734ft 171kts
21-Nov-23 17:57 33.373730 -117.723192 142 5627ft 173kts
21-Nov-23 17:58 33.335808 -117.690577 142 4890ft 164kts
21-Nov-23 17:59 33.298378 -117.659160 142 4093ft 167kts
21-Nov-23 18:00 33.259963 -117.627036 142 3323ft 170kts
21-Nov-23 18:01 33.220771 -117.594337 142 2535ft 173kts
21-Nov-23 18:02 33.181014 -117.560786 142 1754ft 180kts
21-Nov-23 18:03 33.141520 -117.527124 142 1743ft 169kts
21-Nov-23 18:05 33.103441 -117.495124 149 1739ft 167kts
21-Nov-23 18:06 33.058579 -117.479009 162 1748ft 168kts
21-Nov-23 18:07 33.012801 -117.466394 166 1750ft 170kts
21-Nov-23 18:08 32.965399 -117.459379 170 1749ft 172kts
21-Nov-23 18:09 32.917870 -117.452819 171 1748ft 172kts
21-Nov-23 18:10 32.870334 -117.445924 170 1747ft 172kts
21-Nov-23 18:11 32.822563 -117.439085 171 1743ft 173kts
21-Nov-23 18:12 32.775318 -117.432478 171 1745ft 170kts
21-Nov-23 18:13 32.729364 -117.425860 163 1724ft 161kts
21-Nov-23 18:14 32.722476 -117.382299 86 1753ft 146kts
21-Nov-23 18:15 32.724999 -117.334311 84 1749ft 143kts
21-Nov-23 18:16 32.727755 -117.287402 85 1730ft 137kts
21-Nov-23 18:17 32.725324 -117.249344 80 1743ft 105kts
21-Nov-23 18:18 32.728657 -117.211551 98 1392ft 131kts
21-Nov-23 18:19 32.721252 -117.170284 101 1257ft 122kts
21-Nov-23 18:20 32.726991 -117.161947 285 574ft 101kts
21-Nov-23 18:21 32.733013 -117.187416 297 18ft 22kts
21-Nov-23 18:22 32.734051 -117.188037 26 16ft 0kts
21-Nov-23 18:23 32.733824 -117.186028 103 18ft 12kts
21-Nov-23 18:24 32.732655 -117.181182 107 18ft 18kts
21-Nov-23 18:25 32.734227 -117.179522 293 21ft 5kts
21-Nov-23 18:26 32.734244 -117.179590 279 21ft 0kts
21-Nov-23 18:27 32.734244 -117.179590 279 21ft 0kts

Navigation Log

Ident Type
Flight plan parsing failed, navigation log unavailable